createdAt,value
2019-01-23T00:00:31.022Z,97246.72
2019-01-23T00:02:59.965Z,97247.19
2019-01-23T00:05:28.861Z,97245.44
2019-01-23T00:07:57.840Z,97236.57
2019-01-23T00:10:26.719Z,97231.83
2019-01-23T00:12:55.505Z,97228.31
2019-01-23T00:15:24.479Z,97229.12
2019-01-23T00:17:53.340Z,97215.68
2019-01-23T00:20:22.138Z,97215.68
2019-01-23T00:22:50.928Z,97220.37
2019-01-23T00:25:19.715Z,97210.45
2019-01-23T00:27:48.503Z,97212.19
2019-01-23T00:30:17.786Z,97205.08
2019-01-23T00:32:46.567Z,97205.41
2019-01-23T00:35:15.519Z,97191.25
2019-01-23T00:37:44.306Z,97195.62
2019-01-23T00:40:13.389Z,97191.86
2019-01-23T00:42:42.174Z,97188.05
2019-01-23T00:45:11.459Z,97188.88
2019-01-23T00:47:40.311Z,97188.06
2019-01-23T00:50:09.718Z,97190.69
2019-01-23T00:52:38.594Z,97180.82
2019-01-23T00:55:10.580Z,97182.91
2019-01-23T00:57:39.365Z,97185.78
2019-01-23T01:00:15.619Z,97175.17
2019-01-23T01:02:44.550Z,97176.86
2019-01-23T01:05:14.195Z,97173.12
2019-01-23T01:07:43.073Z,97167.81
2019-01-23T01:10:13.206Z,97169.41
2019-01-23T01:12:41.998Z,97172.09
2019-01-23T01:15:13.377Z,97161.13
2019-01-23T01:17:41.856Z,97162.68
2019-01-23T01:20:11.390Z,97166.00
2019-01-23T01:22:40.253Z,97158.91
2019-01-23T01:25:11.314Z,97158.66
2019-01-23T01:27:40.210Z,97161.39
2019-01-23T01:30:12.826Z,97157.91
2019-01-23T01:32:41.750Z,97150.53
2019-01-23T01:35:10.696Z,97145.92
2019-01-23T01:37:39.501Z,97150.69
2019-01-23T01:40:12.497Z,97150.14
2019-01-23T01:42:41.272Z,97143.16
2019-01-23T01:45:11.118Z,97139.09
2019-01-23T01:47:39.992Z,97144.98
2019-01-23T01:50:14.823Z,97136.36
2019-01-23T01:52:43.686Z,97131.66
2019-01-23T01:55:12.941Z,97132.69
2019-01-23T01:57:41.807Z,97127.44
2019-01-23T02:00:14.096Z,97129.36
2019-01-23T02:02:43.043Z,97123.56
2019-01-23T02:05:12.194Z,97111.06
2019-01-23T02:07:41.134Z,97110.77
2019-01-23T02:10:12.520Z,97105.89
2019-01-23T02:12:41.573Z,97097.05
2019-01-23T02:15:11.483Z,97096.22
2019-01-23T02:17:40.543Z,97108.75
2019-01-23T02:20:16.485Z,97099.06
2019-01-23T02:22:45.427Z,97092.71
2019-01-23T02:25:14.589Z,97089.87
2019-01-23T02:27:44.129Z,97088.40
2019-01-23T02:30:14.020Z,97086.47
2019-01-23T02:32:42.893Z,97078.99
2019-01-23T02:35:11.827Z,97076.70
2019-01-23T02:37:41.088Z,97073.22
2019-01-23T02:40:16.594Z,97073.04
2019-01-23T02:42:45.551Z,97070.27
2019-01-23T02:45:14.883Z,97065.17
2019-01-23T02:47:43.764Z,97056.35
2019-01-23T02:50:13.037Z,97053.14
2019-01-23T02:52:41.827Z,97048.89
2019-01-23T02:55:11.855Z,97049.82
2019-01-23T02:57:41.477Z,97040.62
2019-01-23T03:00:12.928Z,97037.59
2019-01-23T03:02:41.885Z,97033.38
2019-01-23T03:05:14.123Z,97029.67
2019-01-23T03:07:43.072Z,97034.08
2019-01-23T03:10:13.712Z,97029.67
2019-01-23T03:12:42.679Z,97028.67
2019-01-23T03:15:12.478Z,97027.09
2019-01-23T03:17:42.015Z,97019.66
2019-01-23T03:20:12.950Z,97021.02
2019-01-23T03:22:42.502Z,97014.03
2019-01-23T03:25:12.878Z,97011.55
2019-01-23T03:27:42.288Z,97001.16
2019-01-23T03:30:14.425Z,97001.06
2019-01-23T03:32:43.369Z,97004.18
2019-01-23T03:35:12.620Z,97002.59
2019-01-23T03:37:41.562Z,96993.23
2019-01-23T03:40:13.341Z,97001.41
2019-01-23T03:42:42.839Z,97003.08
2019-01-23T03:45:12.841Z,97000.31
2019-01-23T03:47:41.773Z,96993.59
2019-01-23T03:50:12.898Z,97000.41
2019-01-23T03:52:41.775Z,96992.40
2019-01-23T03:55:11.515Z,96990.76
2019-01-23T03:57:40.447Z,96993.59
2019-01-23T04:00:12.503Z,96989.72
2019-01-23T04:02:41.472Z,96981.33
2019-01-23T04:05:10.920Z,96977.63
2019-01-23T04:07:39.922Z,96978.02
2019-01-23T04:10:11.324Z,96978.89
2019-01-23T04:12:40.201Z,96973.11
2019-01-23T04:15:10.320Z,96963.78
2019-01-23T04:17:39.197Z,96969.99
2019-01-23T04:20:19.933Z,96967.03
2019-01-23T04:22:48.801Z,96964.66
2019-01-23T04:25:17.841Z,96962.78
2019-01-23T04:27:46.784Z,96961.91
2019-01-23T04:30:18.281Z,96958.06
2019-01-23T04:32:47.160Z,96956.75
2019-01-23T04:35:16.091Z,96954.86
2019-01-23T04:37:45.041Z,96949.55
2019-01-23T04:40:14.345Z,96949.55
2019-01-23T04:42:43.302Z,96952.97
2019-01-23T04:45:13.844Z,96948.91
2019-01-23T04:47:42.769Z,96945.11
2019-01-23T04:50:13.300Z,96943.91
2019-01-23T04:52:59.891Z,96937.81
2019-01-23T04:55:28.777Z,96938.56
2019-01-23T04:57:57.653Z,96943.77
2019-01-23T05:00:27.688Z,96938.17
2019-01-23T05:02:56.569Z,96929.98
2019-01-23T05:05:25.453Z,96939.20
2019-01-23T05:07:54.407Z,96935.03
2019-01-23T05:10:23.343Z,96924.09
2019-01-23T05:12:52.226Z,96933.80
2019-01-23T05:15:21.099Z,96932.03
2019-01-23T05:17:49.891Z,96934.51
2019-01-23T05:20:18.827Z,96929.16
2019-01-23T05:22:47.766Z,96929.41
2019-01-23T05:25:16.714Z,96922.92
2019-01-23T05:27:45.616Z,96920.75
2019-01-23T05:30:17.971Z,96922.52
2019-01-23T05:32:46.827Z,96918.31
2019-01-23T05:35:16.245Z,96919.47
2019-01-23T05:37:45.865Z,96919.95
2019-01-23T05:40:15.213Z,96912.39
2019-01-23T05:42:44.153Z,96911.99
2019-01-23T05:45:13.420Z,96911.19
2019-01-23T05:47:42.280Z,96910.61
2019-01-23T05:50:14.003Z,96910.35
2019-01-23T05:52:42.945Z,96906.31
2019-01-23T05:55:12.745Z,96906.63
2019-01-23T05:57:41.607Z,96909.97
2019-01-23T06:00:13.508Z,96912.84
2019-01-23T06:02:42.378Z,96908.08
2019-01-23T06:05:11.681Z,96907.55
2019-01-23T06:07:40.553Z,96901.05
2019-01-23T06:10:09.817Z,96905.06
2019-01-23T06:12:38.805Z,96895.70
2019-01-23T06:15:08.689Z,96901.30
2019-01-23T06:17:37.488Z,96896.31
2019-01-23T06:20:08.423Z,96895.39
2019-01-23T06:22:37.322Z,96904.06
2019-01-23T06:25:06.802Z,96897.73
2019-01-23T06:27:35.803Z,96904.45
2019-01-23T06:30:10.331Z,96896.53
2019-01-23T06:32:37.671Z,96900.83
2019-01-23T06:35:06.673Z,96904.67
2019-01-23T06:37:35.537Z,96902.25
2019-01-23T06:40:05.582Z,96900.66
2019-01-23T06:42:34.380Z,96899.77
2019-01-23T06:45:03.252Z,96902.42
2019-01-23T06:47:32.254Z,96898.54
2019-01-23T06:50:01.124Z,96903.75
2019-01-23T06:52:29.982Z,96896.38
2019-01-23T06:54:58.792Z,96900.97
2019-01-23T06:57:27.651Z,96900.97
2019-01-23T06:59:56.447Z,96897.43
2019-01-23T07:02:25.315Z,96903.92
2019-01-23T07:04:54.121Z,96866.21
2019-01-23T07:07:22.992Z,96897.66
2019-01-23T07:09:51.967Z,96899.61
2019-01-23T07:12:20.747Z,96901.71
2019-01-23T07:14:49.524Z,96892.14
2019-01-23T07:17:19.053Z,96888.77
2019-01-23T07:19:47.848Z,96888.02
2019-01-23T07:22:16.654Z,96890.76
2019-01-23T07:24:45.525Z,96886.14
2019-01-23T07:27:14.324Z,96882.70
2019-01-23T07:29:43.216Z,96885.20
2019-01-23T07:32:12.185Z,96887.70
2019-01-23T07:34:40.984Z,96887.17
2019-01-23T07:37:09.929Z,96890.16
2019-01-23T07:39:38.748Z,96883.05
2019-01-23T07:42:07.611Z,96883.91
2019-01-23T07:44:36.404Z,96884.80
2019-01-23T07:47:05.389Z,96883.89
2019-01-23T07:49:34.184Z,96880.47
2019-01-23T07:52:03.077Z,96884.56
2019-01-23T07:54:31.856Z,96882.35
2019-01-23T07:57:00.661Z,96875.36
2019-01-23T07:59:29.448Z,96878.50
2019-01-23T08:01:58.319Z,96878.94
2019-01-23T08:04:27.100Z,96871.50
2019-01-23T08:06:55.912Z,96872.84
2019-01-23T08:09:24.768Z,96876.49
2019-01-23T08:11:53.675Z,96870.78
2019-01-23T08:14:22.436Z,96870.64
2019-01-23T08:16:51.599Z,96866.02
2019-01-23T08:19:21.016Z,96868.34
2019-01-23T08:21:49.936Z,96865.80
2019-01-23T08:24:18.813Z,96871.20
2019-01-23T08:26:47.725Z,96867.08
2019-01-23T08:29:16.661Z,96865.14
2019-01-23T08:31:45.541Z,96866.66
2019-01-23T08:34:14.306Z,96862.96
2019-01-23T08:36:43.100Z,96870.48
2019-01-23T08:39:11.957Z,96864.29
2019-01-23T08:41:40.951Z,96864.70
2019-01-23T08:44:09.808Z,96860.30
2019-01-23T08:46:38.590Z,96861.75
2019-01-23T08:49:07.379Z,96864.19
2019-01-23T08:51:36.164Z,96852.97
2019-01-23T08:54:05.602Z,96861.28
2019-01-23T08:56:34.462Z,96857.08
2019-01-23T08:59:03.421Z,96854.86
2019-01-23T09:01:32.202Z,96853.23
2019-01-23T09:04:00.994Z,96856.89
2019-01-23T09:06:29.868Z,96857.82
2019-01-23T09:08:58.648Z,96857.34
2019-01-23T09:11:27.435Z,96856.09
2019-01-23T09:13:56.253Z,96857.63
2019-01-23T09:16:25.039Z,96854.52
2019-01-23T09:18:53.948Z,96852.61
2019-01-23T09:21:23.167Z,96850.88
2019-01-23T09:23:52.326Z,96844.89
2019-01-23T09:26:21.125Z,96851.31
2019-01-23T09:28:49.936Z,96855.89
2019-01-23T09:32:07.725Z,96852.22
2019-01-23T09:35:05.615Z,96853.89
2019-01-23T09:38:09.256Z,96853.15
2019-01-23T09:41:04.121Z,96847.64
2019-01-23T09:44:10.549Z,96852.30
2019-01-23T09:47:03.100Z,96853.92
2019-01-23T09:50:22.397Z,96847.64
2019-01-23T09:53:20.966Z,96852.21
2019-01-23T09:55:49.868Z,96850.36
2019-01-23T09:58:18.827Z,96849.88
2019-01-23T10:00:47.687Z,96841.81
2019-01-23T10:03:22.804Z,96842.25
2019-01-23T10:05:47.077Z,96844.35
2019-01-23T10:08:15.898Z,96839.41
2019-01-23T10:10:44.783Z,96845.84
2019-01-23T10:13:13.584Z,96837.31
2019-01-23T10:15:51.633Z,96839.58
2019-01-23T10:18:20.500Z,96841.98
2019-01-23T10:20:49.371Z,96832.26
2019-01-23T10:23:18.182Z,96841.55
2019-01-23T10:25:47.071Z,96839.26
2019-01-23T10:28:15.941Z,96839.58
2019-01-23T10:30:44.819Z,96836.09
2019-01-23T10:33:13.595Z,96833.11
2019-01-23T10:35:42.465Z,96832.72
2019-01-23T10:38:11.262Z,96827.98
2019-01-23T10:40:40.129Z,96829.70
2019-01-23T10:43:09.083Z,96828.69
2019-01-23T10:45:37.958Z,96822.42
2019-01-23T10:48:07.181Z,96817.08
2019-01-23T10:50:36.058Z,96816.61
2019-01-23T10:53:05.047Z,96818.92
2019-01-23T10:55:33.925Z,96818.02
2019-01-23T10:58:02.879Z,96808.17
2019-01-23T11:00:32.097Z,96809.36
2019-01-23T11:03:01.071Z,96809.95
2019-01-23T11:05:30.131Z,96810.52
2019-01-23T11:07:59.059Z,96800.92
2019-01-23T11:10:28.041Z,96810.91
2019-01-23T11:12:57.342Z,96807.56
2019-01-23T11:15:26.286Z,96804.69
2019-01-23T11:17:55.152Z,96809.17
2019-01-23T11:20:24.121Z,96806.33
2019-01-23T11:22:52.999Z,96804.09
2019-01-23T11:25:21.958Z,96804.63
2019-01-23T11:27:50.896Z,96799.83
2019-01-23T11:30:22.526Z,96807.09
2019-01-23T11:32:51.508Z,96804.70
2019-01-23T11:35:20.383Z,96800.44
2019-01-23T11:37:49.649Z,96797.19
2019-01-23T11:40:21.391Z,96791.66
2019-01-23T11:42:50.321Z,96798.13
2019-01-23T11:45:19.274Z,96795.34
2019-01-23T11:47:48.608Z,96792.25
2019-01-23T11:50:22.932Z,96796.11
2019-01-23T11:52:49.136Z,96789.31
2019-01-23T11:55:18.155Z,96789.07
2019-01-23T11:57:47.024Z,96784.45
2019-01-23T12:00:20.573Z,96787.11
2019-01-23T12:02:49.763Z,96787.11
2019-01-23T12:05:20.547Z,96784.98
2019-01-23T12:07:49.969Z,96783.94
2019-01-23T12:10:20.622Z,96777.55
2019-01-23T12:12:49.474Z,96785.70
2019-01-23T12:15:20.171Z,96782.55
2019-01-23T12:17:49.118Z,96786.59
2019-01-23T12:20:18.264Z,96786.62
2019-01-23T12:22:47.200Z,96792.16
2019-01-23T12:25:16.243Z,96789.97
2019-01-23T12:27:45.235Z,96777.44
2019-01-23T12:30:17.360Z,96779.71
2019-01-23T12:32:46.194Z,96780.02
2019-01-23T12:35:15.153Z,96785.01
2019-01-23T12:37:44.092Z,96786.03
2019-01-23T12:40:13.359Z,96777.77
2019-01-23T12:42:42.219Z,96776.02
2019-01-23T12:45:17.644Z,96778.30
2019-01-23T12:47:46.432Z,96773.12
2019-01-23T12:50:17.479Z,96782.16
2019-01-23T12:52:46.347Z,96778.26
2019-01-23T12:55:15.430Z,96775.22
2019-01-23T12:57:44.392Z,96783.98
2019-01-23T13:00:16.861Z,96780.79
2019-01-23T13:02:45.731Z,96776.87
2019-01-23T13:05:17.785Z,96777.34
2019-01-23T13:07:46.777Z,96769.64
2019-01-23T13:10:17.671Z,96777.72
2019-01-23T13:12:46.626Z,96780.72
2019-01-23T13:15:18.217Z,96777.11
2019-01-23T13:17:47.115Z,96773.80
2019-01-23T13:20:16.921Z,96768.38
2019-01-23T13:22:45.868Z,96768.38
2019-01-23T13:25:18.528Z,96773.15
2019-01-23T13:27:48.011Z,96780.12
2019-01-23T13:30:19.060Z,96781.59
2019-01-23T13:32:48.167Z,96773.80
2019-01-23T13:35:19.252Z,96776.88
2019-01-23T13:37:48.218Z,96783.27
2019-01-23T13:40:22.831Z,96784.73
2019-01-23T13:42:51.617Z,96789.16
2019-01-23T13:45:20.839Z,96789.67
2019-01-23T13:47:49.727Z,96788.49
2019-01-23T13:50:18.754Z,96787.81
2019-01-23T13:52:47.832Z,96788.89
2019-01-23T13:55:17.864Z,96792.78
2019-01-23T13:57:46.778Z,96794.80
2019-01-23T14:00:21.483Z,96792.97
2019-01-23T14:02:50.434Z,96791.22
2019-01-23T14:05:19.487Z,96791.91
2019-01-23T14:07:48.444Z,96798.23
2019-01-23T14:10:17.559Z,96799.34
2019-01-23T14:12:46.495Z,96801.33
2019-01-23T14:15:19.600Z,96806.30
2019-01-23T14:17:48.474Z,96817.19
2019-01-23T14:20:17.908Z,96815.69
2019-01-23T14:22:46.700Z,96809.06
2019-01-23T14:25:16.126Z,96815.47
2019-01-23T14:27:45.279Z,96813.20
2019-01-23T14:30:23.375Z,96828.52
2019-01-23T14:32:52.174Z,96830.09
2019-01-23T14:35:21.077Z,96830.55
2019-01-23T14:37:49.955Z,96834.19
2019-01-23T14:40:18.980Z,96834.19
2019-01-23T14:42:47.866Z,96836.72
2019-01-23T14:45:16.959Z,96840.75
2019-01-23T14:47:45.943Z,96842.98
2019-01-23T14:50:15.015Z,96844.63
2019-01-23T14:52:44.506Z,96843.38
2019-01-23T14:55:13.741Z,96854.31
2019-01-23T14:57:43.102Z,96842.70
2019-01-23T15:00:15.472Z,96852.96
2019-01-23T15:02:44.453Z,96856.72
2019-01-23T15:05:13.493Z,96860.53
2019-01-23T15:07:42.453Z,96862.17
2019-01-23T15:10:14.878Z,96860.87
2019-01-23T15:12:43.820Z,96859.65
2019-01-23T15:15:13.006Z,96859.81
2019-01-23T15:17:41.876Z,96867.49
2019-01-23T15:20:15.198Z,96867.14
2019-01-23T15:22:44.060Z,96866.35
2019-01-23T15:25:13.311Z,96868.09
2019-01-23T15:27:42.115Z,96870.01
2019-01-23T15:30:12.827Z,96869.90
2019-01-23T15:32:41.685Z,96872.28
2019-01-23T15:35:10.866Z,96873.25
2019-01-23T15:37:39.815Z,96878.80
2019-01-23T15:40:11.907Z,96876.50
2019-01-23T15:42:40.781Z,96879.46
2019-01-23T15:45:10.388Z,96880.30
2019-01-23T15:47:39.472Z,96884.83
2019-01-23T15:50:11.943Z,96884.83
2019-01-23T15:52:40.806Z,96891.06
2019-01-23T15:55:11.539Z,96897.13
2019-01-23T15:57:40.332Z,96897.61
2019-01-23T16:00:16.135Z,96901.75
2019-01-23T16:02:45.164Z,96899.66
2019-01-23T16:05:14.725Z,96902.98
2019-01-23T16:07:43.720Z,96909.34
2019-01-23T16:10:14.956Z,96911.92
2019-01-23T16:12:43.988Z,96907.22
2019-01-23T16:15:13.539Z,96909.14
2019-01-23T16:17:42.905Z,96912.48
2019-01-23T16:20:12.107Z,96919.34
2019-01-23T16:22:41.241Z,96926.10
2019-01-23T16:25:12.066Z,96930.70
2019-01-23T16:27:41.070Z,96934.21
2019-01-23T16:30:15.326Z,96933.48
2019-01-23T16:32:44.189Z,96939.49
2019-01-23T16:35:13.142Z,96940.48
2019-01-23T16:37:42.174Z,96951.06
2019-01-23T16:40:11.608Z,96946.74
2019-01-23T16:42:41.473Z,96945.30
2019-01-23T16:45:11.849Z,96951.36
2019-01-23T16:47:41.392Z,96942.08
2019-01-23T16:50:14.562Z,96953.95
2019-01-23T16:52:43.605Z,96956.64
2019-01-23T16:55:12.763Z,96955.91
2019-01-23T16:57:42.021Z,96959.48
2019-01-23T17:00:13.594Z,96969.60
2019-01-23T17:02:42.462Z,96964.73
2019-01-23T17:05:15.591Z,96967.01
2019-01-23T17:07:44.736Z,96974.66
2019-01-23T17:10:15.842Z,96971.09
2019-01-23T17:12:44.883Z,96979.37
2019-01-23T17:15:13.840Z,96983.42
2019-01-23T17:17:42.787Z,96982.48
2019-01-23T17:20:18.013Z,96987.20
2019-01-23T17:22:46.891Z,96986.36
2019-01-23T17:25:15.941Z,96991.89
2019-01-23T17:27:44.851Z,96994.45
2019-01-23T17:30:15.092Z,97005.04
2019-01-23T17:32:45.728Z,97007.98
2019-01-23T17:35:15.823Z,97014.25
2019-01-23T17:37:44.800Z,97014.31
2019-01-23T17:40:15.778Z,97016.08
2019-01-23T17:42:44.831Z,97019.30
2019-01-23T17:45:16.278Z,97023.42
2019-01-23T17:47:45.227Z,97024.52
2019-01-23T17:50:16.190Z,97024.45
2019-01-23T17:52:45.049Z,97028.96
2019-01-23T17:55:20.187Z,97034.38
2019-01-23T17:57:49.048Z,97036.20
2019-01-23T18:00:22.295Z,97032.92
2019-01-23T18:02:52.753Z,97036.11
2019-01-23T18:05:21.929Z,97042.20
2019-01-23T18:07:50.824Z,97041.91
2019-01-23T18:10:19.764Z,97040.36
2019-01-23T18:12:48.699Z,97041.55
2019-01-23T18:15:22.435Z,97049.38
2019-01-23T18:17:51.405Z,97044.28
2019-01-23T18:20:27.924Z,97046.31
2019-01-23T18:22:57.058Z,97046.22
2019-01-23T18:25:26.122Z,97050.38
2019-01-23T18:27:54.995Z,97053.69
2019-01-23T18:30:30.119Z,97053.78
2019-01-23T18:33:00.158Z,97053.59
2019-01-23T18:35:54.278Z,97055.78
2019-01-23T18:38:39.445Z,97064.89
2019-01-23T18:41:51.404Z,97063.05
2019-01-23T18:44:52.159Z,97064.63
2019-01-23T18:47:52.649Z,97072.52
2019-01-23T18:51:04.389Z,97074.38
2019-01-23T18:53:33.253Z,97073.09
2019-01-23T18:56:02.103Z,97084.94
2019-01-23T18:58:31.072Z,97089.73
2019-01-23T19:00:59.875Z,97078.50
2019-01-23T19:03:28.880Z,97093.25
2019-01-23T19:05:57.749Z,97093.16
2019-01-23T19:08:27.056Z,97096.19
2019-01-23T19:10:56.088Z,97097.13
2019-01-23T19:13:25.000Z,97102.17
2019-01-23T19:15:53.936Z,97103.36
2019-01-23T19:18:22.799Z,97107.41
2019-01-23T19:20:51.656Z,97114.39
2019-01-23T19:23:20.614Z,97109.05
2019-01-23T19:25:49.544Z,97118.06
2019-01-23T19:28:18.339Z,97123.22
2019-01-23T19:30:47.200Z,97119.90
2019-01-23T19:33:16.067Z,97122.83
2019-01-23T19:35:45.737Z,97124.11
2019-01-23T19:38:14.605Z,97122.27
2019-01-23T19:40:43.849Z,97121.54
2019-01-23T19:43:12.784Z,97123.47
2019-01-23T19:45:41.649Z,97122.61
2019-01-23T19:48:10.638Z,97120.52
2019-01-23T19:50:39.434Z,97123.56
2019-01-23T19:53:08.498Z,97119.80
2019-01-23T19:55:37.439Z,97125.30
2019-01-23T19:58:06.513Z,97123.85
2019-01-23T20:00:36.063Z,97137.35
2019-01-23T20:03:05.277Z,97136.42
2019-01-23T20:05:34.553Z,97138.44
2019-01-23T20:08:04.257Z,97143.94
2019-01-23T20:10:33.114Z,97147.05
2019-01-23T20:13:02.029Z,97153.66
2019-01-23T20:15:31.837Z,97147.58
2019-01-23T20:18:06.710Z,97156.23
2019-01-23T20:20:35.558Z,97160.63
2019-01-23T20:23:04.595Z,97165.21
2019-01-23T20:25:33.516Z,97168.75
2019-01-23T20:28:03.249Z,97178.05
2019-01-23T20:30:38.243Z,97177.32
2019-01-23T20:33:07.387Z,97175.98
2019-01-23T20:35:36.367Z,97176.42
2019-01-23T20:38:05.701Z,97181.58
2019-01-23T20:40:34.859Z,97179.89
2019-01-23T20:43:03.845Z,97178.07
2019-01-23T20:45:32.732Z,97181.48
2019-01-23T20:48:01.714Z,97183.47
2019-01-23T20:50:31.861Z,97187.95
2019-01-23T20:53:00.908Z,97187.59
2019-01-23T20:55:29.736Z,97192.97
2019-01-23T20:57:58.832Z,97196.00
2019-01-23T21:00:30.076Z,97203.34
2019-01-23T21:02:59.110Z,97207.64
2019-01-23T21:05:28.176Z,97215.48
2019-01-23T21:07:57.085Z,97213.44
2019-01-23T21:10:26.282Z,97217.30
2019-01-23T21:12:55.251Z,97216.18
2019-01-23T21:15:34.396Z,97215.69
2019-01-23T21:18:05.059Z,97212.81
2019-01-23T21:20:36.531Z,97222.23
2019-01-23T21:23:06.151Z,97216.91
2019-01-23T21:25:35.165Z,97220.11
2019-01-23T21:28:04.364Z,97223.08
2019-01-23T21:30:33.224Z,97228.13
2019-01-23T21:33:02.215Z,97229.77
2019-01-23T21:35:31.138Z,97229.02
2019-01-23T21:37:59.921Z,97236.30
2019-01-23T21:40:31.216Z,97236.30
2019-01-23T21:43:00.509Z,97235.19
2019-01-23T21:45:30.984Z,97234.73
2019-01-23T21:48:00.032Z,97242.06
2019-01-23T21:50:29.130Z,97242.64
2019-01-23T21:52:58.238Z,97242.64
2019-01-23T21:55:27.216Z,97244.10
2019-01-23T21:57:56.034Z,97251.38
2019-01-23T22:02:38.631Z,97240.69
2019-01-23T22:05:08.202Z,97244.64
2019-01-23T22:07:37.083Z,97244.64
2019-01-23T22:10:06.695Z,97258.48
2019-01-23T22:12:35.516Z,97260.69
2019-01-23T22:15:05.313Z,97252.36
2019-01-23T22:17:34.119Z,97263.13
2019-01-23T22:20:03.054Z,97271.08
2019-01-23T22:22:31.921Z,97273.77
2019-01-23T22:25:00.805Z,97269.61
2019-01-23T22:27:29.620Z,97276.03
2019-01-23T22:29:58.476Z,97284.98
2019-01-23T22:32:27.335Z,97284.76
2019-01-23T22:34:56.223Z,97285.06
2019-01-23T22:37:25.224Z,97292.19
2019-01-23T22:39:54.240Z,97289.25
2019-01-23T22:42:23.193Z,97294.70
2019-01-23T22:44:51.993Z,97294.38
2019-01-23T22:47:21.763Z,97303.37
2019-01-23T22:49:50.815Z,97311.70
2019-01-23T22:52:19.627Z,97311.47
2019-01-23T22:54:48.744Z,97306.41
2019-01-23T22:57:17.721Z,97316.46
2019-01-23T22:59:46.667Z,97315.70
2019-01-23T23:02:15.607Z,97315.78
2019-01-23T23:04:44.555Z,97329.03
2019-01-23T23:07:13.454Z,97322.08
2019-01-23T23:09:42.310Z,97330.98
2019-01-23T23:12:11.270Z,97326.21
2019-01-23T23:14:40.138Z,97331.35
2019-01-23T23:17:09.008Z,97336.42
2019-01-23T23:19:37.806Z,97340.52
2019-01-23T23:22:06.729Z,97346.17
2019-01-23T23:24:35.704Z,97346.17
2019-01-23T23:27:04.757Z,97348.52
2019-01-23T23:29:33.651Z,97354.94
2019-01-23T23:32:02.593Z,97352.45
2019-01-23T23:34:31.477Z,97363.09
2019-01-23T23:37:00.352Z,97361.96
2019-01-23T23:39:29.152Z,97368.38
2019-01-23T23:41:57.953Z,97369.35
2019-01-23T23:44:26.903Z,97373.72
2019-01-23T23:46:55.786Z,97376.30
2019-01-23T23:49:24.789Z,97376.69
2019-01-23T23:51:54.016Z,97383.84
2019-01-23T23:54:22.881Z,97383.03
2019-01-23T23:56:51.683Z,97384.77
2019-01-23T23:59:20.577Z,97390.81
